Flight Track Log - Related Links

Times and Time Zones

All times are in EDT time to prevent confusion due to time zone crossing. See the EJA929 flight status page for this flight to view local times or setup timezone preferences in your user account.

Time Position Orientation Groundspeed Altitude Reporting Facility
EDT Latitude Longitude Course Direction KTS MPH feet Rate Location/Type
Wed 02:35:09 PM 39.4167 -104.8500 180° South 301 346 11,900  Level Denver TRACON
Wed 02:36:09 PM 39.3344 -104.8325 171° South 352 405 14,300 2,754 Climbing Denver Center
Wed 02:37:11 PM 39.2256 -104.7967 166° South 376 433 17,500 2,419 Climbing Denver Center
Wed 02:38:13 PM 39.1172 -104.7625 166° South 387 445 19,300 1,694 Climbing Denver Center
Wed 02:39:00 PM 38.9427 -105.0555 194° South  Level Estimated
Wed 02:39:15 PM 39.0097 -104.7578 178° South 395 455 21,000  Level Denver Center
Wed 02:40:17 PM 38.9103 -104.8203 206° Southwest 396 456 22,300 1,548 Climbing Denver Center
Wed 02:41:19 PM 38.7956 -104.8908 206° Southwest 407 468 24,200 1,694 Climbing Denver Center
Wed 02:42:21 PM 38.7150 -104.9431 207° Southwest 407 468 25,800 871 Climbing Denver Center
Wed 02:43:23 PM 38.5853 -105.0314 208° Southwest 413 475 26,000 97 Climbing Denver Center
Wed 02:44:25 PM 38.4781 -105.1075 209° Southwest 446 513 26,000  Level Denver Center
Wed 02:45:28 PM 38.3500 -105.1958 208° Southwest 464 534 26,000  Level Denver Center
Wed 02:46:30 PM 38.2394 -105.2711 208° Southwest 470 541 26,000  Level Denver Center
Wed 02:47:32 PM 38.1125 -105.3575 208° Southwest 465 535 26,000  Level Denver Center
Wed 02:48:34 PM 38.0047 -105.4308 208° Southwest 461 531 26,000  Level Denver Center
Wed 02:49:36 PM 37.8803 -105.5142 208° Southwest 455 524 26,000  Level Denver Center
Wed 02:50:38 PM 37.7717 -105.5875 208° Southwest 460 529 26,000  Level Denver Center
Wed 02:51:40 PM 37.6450 -105.6628 205° Southwest 455 524 26,000  Level Denver Center
Wed 02:52:42 PM 37.5317 -105.7203 202° Southwest 455 524 26,000  Level Denver Center
Wed 02:53:44 PM 37.4006 -105.7878 202° Southwest 455 524 26,000  Level Denver Center
Wed 02:54:46 PM 37.2869 -105.8414 201° Southwest 454 522 26,000  Level Denver Center
Wed 02:55:48 PM 37.1736 -105.8933 200° South 452 520 26,000  Level Denver Center
Wed 02:56:50 PM 37.0528 -105.9825 211° Southwest 452 520 26,000  Level Denver Center
Wed 02:57:52 PM 36.9586 -106.0728 217° Southwest 454 522 26,000  Level Denver Center
Wed 02:58:54 PM 36.8497 -106.1869 220° Southwest 454 522 26,000  Level Denver Center
Wed 02:59:57 PM 36.7367 -106.2192 193° South 461 531 26,000  Level Denver Center
Wed 03:00:59 PM 36.6094 -106.2097 177° South 460 529 26,000  Level Denver Center
Wed 03:01:36 PM 36.5208 -106.2003 175° South 464 534 26,000 -735 Level Albuquerque Center
Wed 03:02:37 PM 36.3906 -106.1833 174° South 467 537 24,800 -2,098 Descending Albuquerque Center
Wed 03:03:39 PM 36.2631 -106.1667 174° South 464 534 21,700 -2,952 Descending Albuquerque Center
Wed 03:04:41 PM 36.1217 -106.1494 174° South 429 494 18,700 -2,855 Descending Albuquerque Center
Wed 03:05:43 PM 36.0169 -106.1369 174° South 386 444 15,800 -2,683 Descending Albuquerque Center
Wed 03:06:44 PM 35.9181 -106.1250 174° South 364 419 13,200 -1,415 Descending Albuquerque Center
Wed 03:07:46 PM 35.8308 -106.1142 174° South 349 402 12,900 -1,210 Descending Albuquerque Center
Wed 03:08:48 PM 35.7428 -106.0911 168° South 330 380 10,700 -1,790 Descending Albuquerque Center
Wed 03:09:50 PM 35.6839 -106.0139 133° Southeast 247 284 9,200 -1,610 Descending Albuquerque Center
Wed 03:10:51 PM 35.6586 -106.0533 232° Southwest 166 191 7,400 -1,366 Descending Albuquerque Center
Wed 03:11:53 PM 35.6294 -106.0783 215° Southwest 145 167 6,400 -968 Descending Albuquerque Center

Login

Don't have an account? Register now (free) for customized features, flight alerts, and more!